createdAt,value
2022-09-20T00:03:05.226Z,0
2022-09-20T00:08:27.531Z,0
2022-09-20T00:13:50.129Z,0
2022-09-20T00:19:38.274Z,0
2022-09-20T00:25:01.068Z,0
2022-09-20T00:30:23.574Z,0
2022-09-20T00:35:46.104Z,0
2022-09-20T00:46:31.196Z,0
2022-09-20T00:52:00.119Z,0
2022-09-20T00:57:22.784Z,0
2022-09-20T01:02:56.650Z,0
2022-09-20T01:08:18.919Z,0
2022-09-20T01:13:41.418Z,0
2022-09-20T01:19:03.913Z,0
2022-09-20T01:24:26.334Z,0
2022-09-20T01:29:48.705Z,0
2022-09-20T01:35:14.733Z,0
2022-09-20T01:40:47.611Z,0
2022-09-20T01:46:10.604Z,0
2022-09-20T01:51:53.245Z,0
2022-09-20T01:57:27.118Z,0
2022-09-20T02:02:50.226Z,0
2022-09-20T02:08:13.279Z,0
2022-09-20T02:13:35.879Z,0
2022-09-20T02:19:01.412Z,0
2022-09-20T02:24:26.870Z,0
2022-09-20T02:29:57.008Z,0
2022-09-20T02:35:19.379Z,0
2022-09-20T02:40:47.449Z,0
2022-09-20T02:51:32.372Z,0
2022-09-20T02:56:54.826Z,0
2022-09-20T03:02:29.102Z,0
2022-09-20T03:07:51.913Z,0
2022-09-20T03:13:14.566Z,0
2022-09-20T03:18:37.011Z,0
2022-09-20T03:24:02.523Z,0
2022-09-20T03:29:24.951Z,0
2022-09-20T03:34:50.233Z,0
2022-09-20T03:40:12.687Z,0
2022-09-20T03:45:35.782Z,0
2022-09-20T03:50:58.720Z,0
2022-09-20T03:56:20.988Z,0
2022-09-20T04:01:43.352Z,0
2022-09-20T04:07:05.803Z,0
2022-09-20T04:12:28.780Z,0
2022-09-20T04:17:52.071Z,0
2022-09-20T04:23:14.347Z,0
2022-09-20T04:28:36.835Z,0
2022-09-20T04:39:22.263Z,0
2022-09-20T04:44:45.393Z,0
2022-09-20T04:50:07.866Z,0
2022-09-20T04:55:30.345Z,0
2022-09-20T05:00:53.049Z,0
2022-09-20T05:06:18.738Z,0
2022-09-20T05:11:47.388Z,0
2022-09-20T05:17:10.287Z,0
2022-09-20T05:22:33.172Z,0
2022-09-20T05:27:56.093Z,0.1
2022-09-20T05:33:18.560Z,0.1
2022-09-20T05:38:41.657Z,0.1
2022-09-20T05:44:04.249Z,0.1
2022-09-20T05:49:27.145Z,0.2
2022-09-20T05:54:49.889Z,0.2
2022-09-20T06:00:15.190Z,0.2
2022-09-20T06:05:37.577Z,0.2
2022-09-20T06:11:03.194Z,0.5
2022-09-20T06:21:48.546Z,0.4
2022-09-20T06:27:13.165Z,0.4
2022-09-20T06:32:35.512Z,0.4
2022-09-20T06:38:01.395Z,0.5
2022-09-20T06:43:27.338Z,0.6
2022-09-20T06:48:50.146Z,0.8
2022-09-20T06:54:12.618Z,0.5
2022-09-20T06:59:34.895Z,0.6
2022-09-20T07:04:57.650Z,0.9
2022-09-20T07:10:20.090Z,0.7
2022-09-20T07:16:23.508Z,1
2022-09-20T07:21:46.625Z,1
2022-09-20T07:27:12.621Z,1
2022-09-20T07:32:35.044Z,1
2022-09-20T07:37:57.396Z,1
2022-09-20T07:43:20.630Z,0.9
2022-09-20T07:48:43.105Z,1.2
2022-09-20T07:54:09.187Z,1.3
2022-09-20T07:59:34.463Z,1.5
2022-09-20T08:10:22.607Z,1.2
2022-09-20T08:15:48.092Z,1.3
2022-09-20T08:21:10.188Z,3.4
2022-09-20T08:26:40.450Z,2.4
2022-09-20T08:32:02.412Z,2.5
2022-09-20T08:37:27.857Z,4.3
2022-09-20T08:42:51.961Z,2.8
2022-09-20T08:48:18.090Z,2.7
2022-09-20T08:53:40.141Z,3.2
2022-09-20T08:59:05.871Z,2.4
2022-09-20T09:04:30.747Z,2.1
2022-09-20T09:09:55.040Z,1.8
2022-09-20T09:15:18.009Z,2
2022-09-20T09:20:40.640Z,1.7
2022-09-20T09:26:02.664Z,1.7
2022-09-20T09:31:25.287Z,1.6
2022-09-20T09:36:50.908Z,6.1
2022-09-20T09:42:14.022Z,7.1
2022-09-20T09:47:41.709Z,6.9
2022-09-20T09:53:06.193Z,3.5
2022-09-20T09:58:32.570Z,3.4
2022-09-20T10:03:56.316Z,3.1
2022-09-20T10:09:17.499Z,1.9
2022-09-20T10:14:39.216Z,1.4
2022-09-20T10:20:01.546Z,1.6
2022-09-20T10:25:24.635Z,2.2
2022-09-20T10:30:53.468Z,2
2022-09-20T10:36:16.879Z,2.5
2022-09-20T10:41:41.149Z,4.1
2022-09-20T10:47:10.677Z,6.7
2022-09-20T10:52:33.564Z,7.3
2022-09-20T10:57:58.181Z,7.1
2022-09-20T11:03:25.373Z,2.1
2022-09-20T11:08:52.140Z,5.8
2022-09-20T11:19:47.000Z,0.8
2022-09-20T11:25:15.717Z,7
2022-09-20T11:30:52.263Z,5.9
2022-09-20T11:36:15.202Z,1.2
2022-09-20T11:41:36.202Z,0.8
2022-09-20T11:47:05.786Z,0.5
2022-09-20T11:52:29.369Z,0.8
2022-09-20T11:57:51.950Z,1.1
2022-09-20T12:03:16.883Z,1
2022-09-20T12:08:39.646Z,0.8
2022-09-20T12:14:01.861Z,0.7
2022-09-20T12:19:24.274Z,0.6
2022-09-20T12:24:46.731Z,0.6
2022-09-20T12:30:16.635Z,0.6
2022-09-20T12:35:39.007Z,0.5
2022-09-20T12:41:01.220Z,0.4
2022-09-20T12:46:36.644Z,0.7
2022-09-20T12:57:21.582Z,0.8
2022-09-20T13:02:44.232Z,0.9
2022-09-20T13:08:16.462Z,0.8
2022-09-20T13:13:38.832Z,1
2022-09-20T13:19:02.154Z,1.3
2022-09-20T13:24:25.210Z,1.5
2022-09-20T13:29:48.216Z,1.8
2022-09-20T13:35:11.181Z,1.8
2022-09-20T13:40:48.816Z,1.8
2022-09-20T13:46:11.667Z,1.9
2022-09-20T13:51:34.576Z,1.6
2022-09-20T13:56:57.100Z,1.6
2022-09-20T14:02:23.045Z,1.8
2022-09-20T14:07:51.771Z,1.8
2022-09-20T14:13:14.924Z,1.7
2022-09-20T14:18:37.528Z,1.6
2022-09-20T14:24:00.061Z,2.7
2022-09-20T14:29:23.007Z,1.5
2022-09-20T14:40:16.316Z,2.5
2022-09-20T14:45:38.538Z,1.2
2022-09-20T14:51:00.663Z,0.9
2022-09-20T14:56:22.850Z,1
2022-09-20T15:01:47.967Z,1
2022-09-20T15:07:12.968Z,1
2022-09-20T15:12:35.346Z,0.8
2022-09-20T15:17:57.567Z,1
2022-09-20T15:23:25.967Z,0.8
2022-09-20T15:28:48.385Z,0.9
2022-09-20T15:34:10.849Z,0.9
2022-09-20T15:39:33.581Z,0.8
2022-09-20T15:45:13.642Z,0.8
2022-09-20T15:50:35.889Z,0.4
2022-09-20T15:56:16.364Z,0.3
2022-09-20T16:01:38.563Z,0.3
2022-09-20T16:07:18.543Z,0.4
2022-09-20T16:12:41.187Z,0.4
2022-09-20T16:18:03.825Z,0.3
2022-09-20T16:23:29.273Z,0.4
2022-09-20T16:29:16.876Z,0.4
2022-09-20T16:34:40.145Z,0.3
2022-09-20T16:40:02.474Z,0.2
2022-09-20T16:45:38.511Z,0.2
2022-09-20T16:56:48.144Z,0.2
2022-09-20T17:02:11.103Z,0.2
2022-09-20T17:07:33.436Z,0.1
2022-09-20T17:12:55.935Z,0.1
2022-09-20T17:18:18.972Z,0.1
2022-09-20T17:23:41.678Z,0.1
2022-09-20T17:29:03.947Z,0
2022-09-20T17:34:26.207Z,0
2022-09-20T17:39:48.570Z,0
2022-09-20T17:45:16.542Z,0
2022-09-20T17:50:42.227Z,0
2022-09-20T17:56:04.551Z,0
2022-09-20T18:01:27.082Z,0
2022-09-20T18:06:49.417Z,0
2022-09-20T18:12:16.714Z,0
2022-09-20T18:17:44.030Z,0
2022-09-20T18:23:17.047Z,0
2022-09-20T18:28:39.489Z,0
2022-09-20T18:34:02.174Z,0
2022-09-20T18:39:24.522Z,0
2022-09-20T18:44:47.079Z,0
2022-09-20T18:50:09.522Z,0
2022-09-20T19:00:57.161Z,0
2022-09-20T19:06:26.106Z,0
2022-09-20T19:11:48.640Z,0
2022-09-20T19:17:13.820Z,0
2022-09-20T19:22:36.188Z,0
2022-09-20T19:27:58.556Z,0
2022-09-20T19:33:20.928Z,0
2022-09-20T19:38:43.289Z,0
2022-09-20T19:44:05.636Z,0
2022-09-20T19:49:28.051Z,0
2022-09-20T19:54:50.631Z,0
2022-09-20T20:00:13.381Z,0
2022-09-20T20:05:35.757Z,0
2022-09-20T20:10:58.748Z,0
2022-09-20T20:16:22.011Z,0
2022-09-20T20:21:45.103Z,0
2022-09-20T20:27:07.763Z,0
2022-09-20T20:32:31.134Z,0
2022-09-20T20:37:53.553Z,0
2022-09-20T20:43:16.179Z,0
2022-09-20T20:48:38.796Z,0
2022-09-20T20:54:01.676Z,0
2022-09-20T20:59:24.129Z,0
2022-09-20T21:04:46.819Z,0
2022-09-20T21:10:09.259Z,0
2022-09-20T21:15:31.998Z,0
2022-09-20T21:20:57.860Z,0
2022-09-20T21:26:20.520Z,0
2022-09-20T21:31:43.261Z,0
2022-09-20T21:37:05.890Z,0
2022-09-20T21:42:28.467Z,0
2022-09-20T21:47:51.024Z,0
2022-09-20T21:53:13.600Z,0
2022-09-20T21:58:58.559Z,0
2022-09-20T22:04:21.759Z,0
2022-09-20T22:09:44.026Z,0
2022-09-20T22:20:35.633Z,0
2022-09-20T22:25:58.123Z,0
2022-09-20T22:31:21.363Z,0
2022-09-20T22:36:44.435Z,0
2022-09-20T22:42:06.659Z,0
2022-09-20T22:47:29.085Z,0
2022-09-20T22:53:00.730Z,0
2022-09-20T22:58:23.104Z,0
2022-09-20T23:03:45.234Z,0
2022-09-20T23:09:08.687Z,0
2022-09-20T23:14:40.611Z,0
2022-09-20T23:20:02.901Z,0
2022-09-20T23:25:28.075Z,0
2022-09-20T23:30:51.912Z,0
2022-09-20T23:41:50.763Z,0
2022-09-20T23:47:20.018Z,0
2022-09-20T23:52:42.703Z,0
2022-09-20T23:58:04.938Z,0
